Private Wetterstation Sandau
Wetterdaten: Freitag, 22.02.2013
Datum Zeit Temp. A. Feuchte A. Luftdruck Regen Wind Richtung Richtung Taupunkt Windchill
22.02.2013 00:01 -2,7 C 80 % 1023,8 hPa 0,0 l/m 4,3 km/h (1 Bft) NO 45 -5,7 C -2,7 C
22.02.2013 00:06 -2,7 C 81 % 1023,6 hPa 0,0 l/m 3,2 km/h (1 Bft) NO 45 -5,5 C -2,7 C
22.02.2013 00:11 -2,8 C 80 % 1023,7 hPa 0,0 l/m 4,0 km/h (1 Bft) NO 45 -5,8 C -2,8 C
22.02.2013 00:16 -2,9 C 80 % 1023,6 hPa 0,0 l/m 0,0 km/h (0 Bft) N-NO 22 -5,9 C -2,9 C
22.02.2013 00:21 -3,0 C 81 % 1023,6 hPa 0,0 l/m 2,5 km/h (1 Bft) NO 45 -5,8 C -3,0 C
22.02.2013 00:26 -3,1 C 81 % 1023,5 hPa 0,0 l/m 1,8 km/h (1 Bft) O-NO 67 -5,9 C -3,1 C
22.02.2013 00:31 -3,2 C 81 % 1023,4 hPa 0,0 l/m 4,7 km/h (1 Bft) NO 45 -6,0 C -5,1 C
22.02.2013 00:36 -3,2 C 81 % 1023,6 hPa 0,0 l/m 3,6 km/h (1 Bft) O-NO 67 -6,0 C -3,2 C
22.02.2013 00:41 -3,2 C 81 % 1023,6 hPa 0,0 l/m 4,0 km/h (1 Bft) O-NO 67 -6,0 C -3,2 C
22.02.2013 00:46 -3,3 C 81 % 1023,6 hPa 0,0 l/m 2,5 km/h (1 Bft) NO 45 -6,1 C -3,3 C
22.02.2013 00:51 -3,4 C 81 % 1023,5 hPa 0,0 l/m 5,8 km/h (2 Bft) O-NO 67 -6,2 C -5,8 C
22.02.2013 00:56 -3,4 C 82 % 1023,4 hPa 0,0 l/m 2,5 km/h (1 Bft) O-NO 67 -6,0 C -3,4 C
22.02.2013 01:01 -3,5 C 82 % 1023,4 hPa 0,0 l/m 4,0 km/h (1 Bft) NO 45 -6,1 C -3,5 C
22.02.2013 01:06 -3,6 C 82 % 1023,3 hPa 0,0 l/m 3,6 km/h (1 Bft) NO 45 -6,2 C -3,6 C
22.02.2013 01:11 -3,6 C 82 % 1023,2 hPa 0,0 l/m 0,0 km/h (0 Bft) N-NO 22 -6,2 C -3,6 C
22.02.2013 01:16 -3,6 C 82 % 1023,4 hPa 0,0 l/m 1,4 km/h (1 Bft) NO 45 -6,2 C -3,6 C
22.02.2013 01:21 -3,7 C 82 % 1023,2 hPa 0,0 l/m 5,8 km/h (2 Bft) N-NO 22 -6,3 C -6,2 C
22.02.2013 01:26 -3,6 C 83 % 1023,2 hPa 0,0 l/m 5,0 km/h (1 Bft) O-NO 67 -6,1 C -5,7 C
22.02.2013 01:31 -3,6 C 83 % 1023,3 hPa 0,0 l/m 2,2 km/h (1 Bft) NO 45 -6,1 C -3,6 C
22.02.2013 01:36 -3,6 C 84 % 1023,3 hPa 0,0 l/m 3,6 km/h (1 Bft) O-NO 67 -5,9 C -3,6 C
22.02.2013 01:41 -3,5 C 84 % 1023,3 hPa 0,0 l/m 2,9 km/h (1 Bft) NO 45 -5,8 C -3,5 C
22.02.2013 01:46 -3,4 C 84 % 1023,2 hPa 0,0 l/m 1,8 km/h (1 Bft) NO 45 -5,7 C -3,4 C
22.02.2013 01:51 -3,4 C 84 % 1023,4 hPa 0,0 l/m 1,4 km/h (1 Bft) NO 45 -5,7 C -3,4 C
22.02.2013 01:56 -3,2 C 84 % 1023,3 hPa 0,0 l/m 0,0 km/h (0 Bft) NO 45 -5,5 C -3,2 C
22.02.2013 02:01 -3,2 C 84 % 1023,2 hPa 0,0 l/m 0,0 km/h (0 Bft) NO 45 -5,5 C -3,2 C
22.02.2013 02:06 -3,2 C 85 % 1023,2 hPa 0,0 l/m 4,7 km/h (1 Bft) O-NO 67 -5,4 C -5,1 C
22.02.2013 02:11 -3,2 C 85 % 1023,1 hPa 0,0 l/m 2,2 km/h (1 Bft) NO 45 -5,4 C -3,2 C
22.02.2013 02:16 -3,1 C 86 % 1023,2 hPa 0,0 l/m 3,2 km/h (1 Bft) NO 45 -5,1 C -3,1 C
22.02.2013 02:21 -3,1 C 86 % 1023,3 hPa 0,0 l/m 2,5 km/h (1 Bft) O-NO 67 -5,1 C -3,1 C
22.02.2013 02:26 -3,1 C 86 % 1023,2 hPa 0,0 l/m 5,0 km/h (1 Bft) NO 45 -5,1 C -5,1 C
22.02.2013 02:31 -3,1 C 86 % 1023,1 hPa 0,0 l/m 3,6 km/h (1 Bft) O-NO 67 -5,1 C -3,1 C
22.02.2013 02:36 -3,1 C 86 % 1022,9 hPa 0,0 l/m 6,1 km/h (2 Bft) NO 45 -5,1 C -5,6 C
22.02.2013 02:41 -3,1 C 86 % 1023,0 hPa 0,0 l/m 3,2 km/h (1 Bft) NO 45 -5,1 C -3,1 C
22.02.2013 02:46 -3,1 C 86 % 1023,1 hPa 0,0 l/m 6,1 km/h (2 Bft) O-NO 67 -5,1 C -5,6 C
22.02.2013 02:51 -3,1 C 86 % 1022,9 hPa 0,0 l/m 5,0 km/h (1 Bft) NO 45 -5,1 C -5,1 C
22.02.2013 02:56 -3,1 C 86 % 1022,9 hPa 0,0 l/m 5,0 km/h (1 Bft) NO 45 -5,1 C -5,1 C
22.02.2013 03:01 -3,1 C 86 % 1022,8 hPa 0,0 l/m 6,1 km/h (2 Bft) NO 45 -5,1 C -5,6 C
22.02.2013 03:06 -3,1 C 86 % 1022,7 hPa 0,0 l/m 3,6 km/h (1 Bft) O-NO 67 -5,1 C -3,1 C
22.02.2013 03:11 -3,1 C 86 % 1022,9 hPa 0,0 l/m 7,2 km/h (2 Bft) O-NO 67 -5,1 C -6,1 C
22.02.2013 03:16 -3,1 C 86 % 1022,5 hPa 0,0 l/m 3,6 km/h (1 Bft) O-NO 67 -5,1 C -3,1 C
22.02.2013 03:21 -3,1 C 85 % 1022,5 hPa 0,0 l/m 4,3 km/h (1 Bft) NO 45 -5,3 C -3,1 C
22.02.2013 03:26 -3,1 C 85 % 1022,5 hPa 0,0 l/m 3,6 km/h (1 Bft) O-NO 67 -5,3 C -3,1 C
22.02.2013 03:31 -3,2 C 85 % 1022,6 hPa 0,0 l/m 2,2 km/h (1 Bft) N-NO 22 -5,4 C -3,2 C
22.02.2013 03:36 -3,2 C 85 % 1022,4 hPa 0,0 l/m 4,3 km/h (1 Bft) O 90 -5,4 C -3,2 C
22.02.2013 03:41 -3,2 C 85 % 1022,4 hPa 0,0 l/m 2,5 km/h (1 Bft) NO 45 -5,4 C -3,2 C
22.02.2013 03:46 -3,2 C 85 % 1022,3 hPa 0,0 l/m 4,7 km/h (1 Bft) N-NO 22 -5,4 C -5,1 C
22.02.2013 03:51 -3,2 C 84 % 1022,4 hPa 0,0 l/m 4,0 km/h (1 Bft) NO 45 -5,5 C -3,2 C
22.02.2013 03:56 -3,1 C 84 % 1022,4 hPa 0,0 l/m 6,1 km/h (2 Bft) O-NO 67 -5,4 C -5,6 C
22.02.2013 04:01 -3,1 C 84 % 1022,4 hPa 0,0 l/m 7,9 km/h (2 Bft) NO 45 -5,4 C -6,3 C
22.02.2013 04:06 -3,1 C 83 % 1022,2 hPa 0,0 l/m 4,0 km/h (1 Bft) O-NO 67 -5,6 C -3,1 C
22.02.2013 04:11 -3,1 C 82 % 1022,2 hPa 0,0 l/m 7,2 km/h (2 Bft) O-NO 67 -5,7 C -6,1 C
22.02.2013 04:16 -3,1 C 81 % 1022,2 hPa 0,0 l/m 5,0 km/h (1 Bft) O-NO 67 -5,9 C -5,1 C
22.02.2013 04:21 -3,1 C 81 % 1022,2 hPa 0,0 l/m 8,6 km/h (2 Bft) O-NO 67 -5,9 C -6,6 C
22.02.2013 04:26 -3,1 C 81 % 1022,3 hPa 0,0 l/m 9,0 km/h (2 Bft) O 90 -5,9 C -6,7 C
22.02.2013 04:31 -3,1 C 81 % 1022,2 hPa 0,0 l/m 10,8 km/h (2 Bft) NO 45 -5,9 C -7,2 C
22.02.2013 04:36 -3,2 C 80 % 1022,2 hPa 0,0 l/m 5,8 km/h (2 Bft) O 90 -6,1 C -5,6 C
22.02.2013 04:41 -3,2 C 80 % 1022,2 hPa 0,0 l/m 3,6 km/h (1 Bft) O-NO 67 -6,1 C -3,2 C
22.02.2013 04:46 -3,2 C 81 % 1022,1 hPa 0,0 l/m 4,7 km/h (1 Bft) O-NO 67 -6,0 C -5,1 C
22.02.2013 04:51 -3,2 C 81 % 1022,2 hPa 0,0 l/m 3,2 km/h (1 Bft) O-NO 67 -6,0 C -3,2 C
22.02.2013 04:56 -3,2 C 80 % 1022,2 hPa 0,0 l/m 6,1 km/h (2 Bft) NO 45 -6,1 C -5,7 C
22.02.2013 05:01 -3,2 C 80 % 1022,0 hPa 0,0 l/m 4,0 km/h (1 Bft) O-NO 67 -6,1 C -3,2 C
22.02.2013 05:06 -3,2 C 81 % 1022,1 hPa 0,0 l/m 7,2 km/h (2 Bft) NO 45 -6,0 C -6,2 C
22.02.2013 05:11 -3,2 C 81 % 1022,1 hPa 0,0 l/m 6,1 km/h (2 Bft) NO 45 -6,0 C -5,7 C
22.02.2013 05:16 -3,2 C 81 % 1022,1 hPa 0,0 l/m 7,2 km/h (2 Bft) O-NO 67 -6,0 C -6,2 C
22.02.2013 05:21 -3,2 C 81 % 1022,2 hPa 0,0 l/m 3,2 km/h (1 Bft) NO 45 -6,0 C -3,2 C
22.02.2013 05:26 -3,2 C 81 % 1022,1 hPa 0,0 l/m 4,0 km/h (1 Bft) O-NO 67 -6,0 C -3,2 C
22.02.2013 05:31 -3,3 C 81 % 1022,2 hPa 0,0 l/m 10,4 km/h (2 Bft) O 90 -6,1 C -7,4 C
22.02.2013 05:36 -3,3 C 81 % 1022,2 hPa 0,0 l/m 7,2 km/h (2 Bft) NO 45 -6,1 C -6,3 C
22.02.2013 05:41 -3,3 C 81 % 1022,2 hPa 0,0 l/m 14,4 km/h (3 Bft) NO 45 -6,1 C -8,4 C
22.02.2013 05:46 -3,3 C 81 % 1022,3 hPa 0,0 l/m 5,0 km/h (1 Bft) O-NO 67 -6,1 C -5,3 C
22.02.2013 05:51 -3,4 C 81 % 1022,2 hPa 0,0 l/m 9,7 km/h (2 Bft) O 90 -6,2 C -7,3 C
22.02.2013 05:56 -3,4 C 81 % 1022,2 hPa 0,0 l/m 8,3 km/h (2 Bft) N-NO 22 -6,2 C -6,8 C
22.02.2013 06:01 -3,4 C 81 % 1022,2 hPa 0,0 l/m 7,9 km/h (2 Bft) O-NO 67 -6,2 C -6,7 C
22.02.2013 06:06 -3,4 C 81 % 1022,1 hPa 0,0 l/m 9,7 km/h (2 Bft) O-NO 67 -6,2 C -7,3 C
22.02.2013 06:11 -3,4 C 81 % 1022,0 hPa 0,0 l/m 5,0 km/h (1 Bft) O-NO 67 -6,2 C -5,4 C
22.02.2013 06:16 -3,4 C 81 % 1021,8 hPa 0,0 l/m 5,0 km/h (1 Bft) O-NO 67 -6,2 C -5,4 C
22.02.2013 06:21 -3,4 C 81 % 1022,1 hPa 0,0 l/m 6,8 km/h (2 Bft) NO 45 -6,2 C -6,3 C
22.02.2013 06:26 -3,4 C 81 % 1022,1 hPa 0,0 l/m 9,0 km/h (2 Bft) O-SO 112 -6,2 C -7,1 C
22.02.2013 06:31 -3,4 C 81 % 1022,0 hPa 0,0 l/m 4,7 km/h (1 Bft) NO 45 -6,2 C -5,3 C
22.02.2013 06:36 -3,4 C 81 % 1022,1 hPa 0,0 l/m 10,4 km/h (2 Bft) O-NO 67 -6,2 C -7,5 C
22.02.2013 06:41 -3,4 C 81 % 1022,0 hPa 0,0 l/m 3,2 km/h (1 Bft) NO 45 -6,2 C -3,4 C
22.02.2013 06:46 -3,4 C 81 % 1021,8 hPa 0,0 l/m 6,5 km/h (2 Bft) NO 45 -6,2 C -6,2 C
22.02.2013 06:51 -3,4 C 81 % 1022,0 hPa 0,0 l/m 6,1 km/h (2 Bft) O 90 -6,2 C -6,0 C
22.02.2013 06:56 -3,4 C 81 % 1021,9 hPa 0,0 l/m 5,0 km/h (1 Bft) O-NO 67 -6,2 C -5,4 C
22.02.2013 07:01 -3,4 C 81 % 1021,9 hPa 0,0 l/m 7,2 km/h (2 Bft) O-NO 67 -6,2 C -6,4 C
22.02.2013 07:06 -3,4 C 81 % 1022,0 hPa 0,0 l/m 4,0 km/h (1 Bft) O-NO 67 -6,2 C -3,4 C
22.02.2013 07:11 -3,4 C 81 % 1022,1 hPa 0,0 l/m 4,3 km/h (1 Bft) N-NO 22 -6,2 C -3,4 C
22.02.2013 07:16 -3,4 C 81 % 1022,1 hPa 0,0 l/m 4,7 km/h (1 Bft) O-NO 67 -6,2 C -5,3 C
22.02.2013 07:21 -3,4 C 81 % 1022,0 hPa 0,0 l/m 5,8 km/h (2 Bft) NO 45 -6,2 C -5,8 C
22.02.2013 07:26 -3,4 C 81 % 1022,1 hPa 0,0 l/m 6,5 km/h (2 Bft) NO 45 -6,2 C -6,2 C
22.02.2013 07:31 -3,4 C 81 % 1022,0 hPa 0,0 l/m 4,7 km/h (1 Bft) NO 45 -6,2 C -5,3 C
22.02.2013 07:36 -3,4 C 81 % 1022,1 hPa 0,0 l/m 3,2 km/h (1 Bft) O-NO 67 -6,2 C -3,4 C
22.02.2013 07:41 -3,4 C 81 % 1022,0 hPa 0,0 l/m 3,6 km/h (1 Bft) NO 45 -6,2 C -3,4 C
22.02.2013 07:46 -3,4 C 81 % 1022,2 hPa 0,0 l/m 3,2 km/h (1 Bft) O-NO 67 -6,2 C -3,4 C
22.02.2013 07:51 -3,4 C 81 % 1022,1 hPa 0,0 l/m 4,3 km/h (1 Bft) O-NO 67 -6,2 C -3,4 C
22.02.2013 07:56 -3,4 C 81 % 1022,1 hPa 0,0 l/m 4,0 km/h (1 Bft) NO 45 -6,2 C -3,4 C
22.02.2013 08:01 -3,3 C 81 % 1022,1 hPa 0,0 l/m 14,8 km/h (3 Bft) O-NO 67 -6,1 C -8,4 C
22.02.2013 08:06 -3,3 C 81 % 1022,1 hPa 0,0 l/m 4,7 km/h (1 Bft) O-NO 67 -6,1 C -5,2 C
22.02.2013 08:11 -3,3 C 81 % 1022,1 hPa 0,0 l/m 7,2 km/h (2 Bft) O-NO 67 -6,1 C -6,3 C
22.02.2013 08:16 -3,3 C 81 % 1022,1 hPa 0,0 l/m 7,2 km/h (2 Bft) O-NO 67 -6,1 C -6,3 C
22.02.2013 08:21 -3,3 C 81 % 1022,1 hPa 0,0 l/m 5,8 km/h (2 Bft) O-SO 112 -6,1 C -5,7 C
22.02.2013 08:26 -3,2 C 81 % 1022,2 hPa 0,0 l/m 5,4 km/h (1 Bft) O-NO 67 -6,0 C -5,4 C
22.02.2013 08:31 -3,2 C 82 % 1022,1 hPa 0,0 l/m 7,6 km/h (2 Bft) NO 45 -5,8 C -6,4 C
22.02.2013 08:36 -3,2 C 82 % 1022,2 hPa 0,0 l/m 1,1 km/h (1 Bft) NO 45 -5,8 C -3,2 C
22.02.2013 08:41 -3,2 C 82 % 1022,2 hPa 0,0 l/m 6,5 km/h (2 Bft) NO 45 -5,8 C -5,9 C
22.02.2013 08:46 -3,2 C 82 % 1022,2 hPa 0,0 l/m 7,6 km/h (2 Bft) N 360 -5,8 C -6,4 C
22.02.2013 08:51 -3,2 C 81 % 1022,1 hPa 0,0 l/m 14,8 km/h (3 Bft) O-NO 67 -6,0 C -8,3 C
22.02.2013 08:56 -3,2 C 81 % 1022,2 hPa 0,0 l/m 9,0 km/h (2 Bft) O-NO 67 -6,0 C -6,8 C
22.02.2013 09:01 -3,1 C 81 % 1022,2 hPa 0,0 l/m 5,8 km/h (2 Bft) NO 45 -5,9 C -5,5 C
22.02.2013 09:06 -3,1 C 81 % 1022,0 hPa 0,0 l/m 6,5 km/h (2 Bft) NO 45 -5,9 C -5,8 C
22.02.2013 09:11 -3,0 C 82 % 1022,1 hPa 0,0 l/m 6,8 km/h (2 Bft) NO 45 -5,6 C -5,8 C
22.02.2013 09:16 -3,0 C 81 % 1022,1 hPa 0,0 l/m 8,6 km/h (2 Bft) O 90 -5,8 C -6,5 C
22.02.2013 09:21 -2,9 C 81 % 1022,0 hPa 0,0 l/m 5,0 km/h (1 Bft) NO 45 -5,7 C -4,9 C
22.02.2013 09:26 -2,9 C 81 % 1022,0 hPa 0,0 l/m 12,2 km/h (2 Bft) O-NO 67 -5,7 C -7,4 C
22.02.2013 09:31 -2,8 C 81 % 1021,9 hPa 0,0 l/m 6,5 km/h (2 Bft) NO 45 -5,6 C -5,5 C
22.02.2013 09:36 -2,8 C 80 % 1021,7 hPa 0,0 l/m 11,9 km/h (2 Bft) NO 45 -5,8 C -7,2 C
22.02.2013 09:41 -2,7 C 80 % 1021,9 hPa 0,0 l/m 11,5 km/h (2 Bft) O-NO 67 -5,7 C -6,9 C
22.02.2013 09:46 -2,6 C 80 % 1021,9 hPa 0,0 l/m 3,2 km/h (1 Bft) O 90 -5,6 C -2,6 C
22.02.2013 09:51 -2,5 C 80 % 1021,8 hPa 0,0 l/m 6,8 km/h (2 Bft) O-NO 67 -5,5 C -5,2 C
22.02.2013 09:56 -2,4 C 79 % 1021,8 hPa 0,0 l/m 11,5 km/h (2 Bft) NO 45 -5,5 C -6,6 C
22.02.2013 10:01 -2,4 C 79 % 1021,9 hPa 0,0 l/m 8,3 km/h (2 Bft) O-NO 67 -5,5 C -5,7 C
22.02.2013 10:06 -2,2 C 79 % 1022,0 hPa 0,0 l/m 8,3 km/h (2 Bft) NO 45 -5,3 C -5,4 C
22.02.2013 10:11 -2,2 C 78 % 1021,9 hPa 0,0 l/m 5,4 km/h (1 Bft) O-NO 67 -5,5 C -4,3 C
22.02.2013 10:16 -2,1 C 78 % 1021,9 hPa 0,0 l/m 4,0 km/h (1 Bft) O-NO 67 -5,4 C -2,1 C
22.02.2013 10:21 -2,0 C 77 % 1021,8 hPa 0,0 l/m 7,9 km/h (2 Bft) O-NO 67 -5,5 C -5,1 C
22.02.2013 10:26 -1,8 C 77 % 1021,9 hPa 0,0 l/m 2,2 km/h (1 Bft) O-NO 67 -5,3 C -1,8 C
22.02.2013 10:31 -1,6 C 77 % 1021,9 hPa 0,0 l/m 4,7 km/h (1 Bft) O-NO 67 -5,1 C -3,3 C
22.02.2013 10:36 -1,6 C 75 % 1022,0 hPa 0,0 l/m 14,4 km/h (3 Bft) O-NO 67 -5,4 C -6,3 C
22.02.2013 10:41 -1,5 C 76 % 1021,9 hPa 0,0 l/m 6,1 km/h (2 Bft) O-NO 67 -5,2 C -3,8 C
22.02.2013 10:46 -1,5 C 75 % 1021,7 hPa 0,0 l/m 10,1 km/h (2 Bft) O-NO 67 -5,3 C -5,1 C
22.02.2013 10:51 -1,4 C 74 % 1021,6 hPa 0,0 l/m 8,3 km/h (2 Bft) O 90 -5,4 C -4,5 C
22.02.2013 10:56 -1,1 C 75 % 1021,7 hPa 0,0 l/m 13,7 km/h (3 Bft) O-NO 67 -5,0 C -5,5 C
22.02.2013 11:01 -1,1 C 74 % 1021,8 hPa 0,0 l/m 19,1 km/h (3 Bft) O-SO 112 -5,1 C -6,5 C
22.02.2013 11:06 -0,9 C 73 % 1021,7 hPa 0,0 l/m 8,6 km/h (2 Bft) O-NO 67 -5,1 C -4,0 C
22.02.2013 11:11 -0,9 C 73 % 1021,7 hPa 0,0 l/m 10,1 km/h (2 Bft) NO 45 -5,1 C -4,4 C
22.02.2013 11:16 -0,8 C 72 % 1021,5 hPa 0,0 l/m 9,4 km/h (2 Bft) SO 135 -5,2 C -4,1 C
22.02.2013 11:21 -0,9 C 72 % 1021,6 hPa 0,0 l/m 5,4 km/h (1 Bft) N-NO 22 -5,3 C -2,8 C
22.02.2013 11:26 -0,9 C 71 % 1021,7 hPa 0,0 l/m 13,0 km/h (3 Bft) O-NO 67 -5,5 C -5,1 C
22.02.2013 11:31 -0,9 C 71 % 1021,6 hPa 0,0 l/m 7,2 km/h (2 Bft) NO 45 -5,5 C -3,5 C
22.02.2013 11:36 -0,9 C 71 % 1021,5 hPa 0,0 l/m 8,6 km/h (2 Bft) O 90 -5,5 C -4,0 C
22.02.2013 11:41 -1,1 C 71 % 1021,7 hPa 0,0 l/m 14,4 km/h (3 Bft) O 90 -5,7 C -5,7 C
22.02.2013 11:46 -1,0 C 71 % 1021,4 hPa 0,0 l/m 12,2 km/h (2 Bft) NO 45 -5,6 C -5,1 C
22.02.2013 11:51 -0,9 C 71 % 1021,4 hPa 0,0 l/m 9,4 km/h (2 Bft) O-SO 112 -5,5 C -4,2 C
22.02.2013 11:56 -0,8 C 71 % 1021,4 hPa 0,5 l/m 18,7 km/h (3 Bft) O 90 -5,4 C -6,0 C
22.02.2013 12:01 -0,9 C 70 % 1021,5 hPa 0,0 l/m 11,9 km/h (2 Bft) O-SO 112 -5,7 C -4,9 C
22.02.2013 12:06 -0,9 C 70 % 1021,5 hPa 0,0 l/m 5,0 km/h (1 Bft) NO 45 -5,7 C -2,6 C
22.02.2013 12:11 -0,8 C 71 % 1021,4 hPa 0,0 l/m 7,2 km/h (2 Bft) O 90 -5,4 C -3,4 C
22.02.2013 12:16 -0,7 C 71 % 1021,5 hPa 0,0 l/m 7,6 km/h (2 Bft) O-NO 67 -5,3 C -3,4 C
22.02.2013 12:21 -0,8 C 68 % 1021,3 hPa 0,0 l/m 11,2 km/h (2 Bft) O 90 -5,9 C -4,6 C
22.02.2013 12:26 -0,8 C 69 % 1021,4 hPa 0,0 l/m 2,5 km/h (1 Bft) O 90 -5,8 C -0,8 C
22.02.2013 12:31 -0,7 C 68 % 1021,3 hPa 0,0 l/m 9,0 km/h (2 Bft) O 90 -5,9 C -3,9 C
22.02.2013 12:36 -0,8 C 67 % 1021,4 hPa 0,0 l/m 9,7 km/h (2 Bft) O 90 -6,1 C -4,2 C
22.02.2013 12:41 -0,9 C 67 % 1021,1 hPa 0,0 l/m 14,0 km/h (3 Bft) NO 45 -6,2 C -5,3 C
22.02.2013 12:46 -1,1 C 68 % 1021,2 hPa 0,0 l/m 18,0 km/h (3 Bft) O-NO 67 -6,2 C -6,3 C
22.02.2013 12:51 -1,1 C 68 % 1021,1 hPa 0,0 l/m 9,7 km/h (2 Bft) O 90 -6,2 C -4,5 C
22.02.2013 12:56 -1,1 C 68 % 1021,1 hPa 0,0 l/m 10,1 km/h (2 Bft) O 90 -6,2 C -4,7 C
22.02.2013 13:01 -1,1 C 69 % 1021,2 hPa 0,0 l/m 16,6 km/h (3 Bft) O-SO 112 -6,0 C -6,1 C
22.02.2013 13:06 -1,1 C 69 % 1020,9 hPa 0,0 l/m 10,4 km/h (2 Bft) NO 45 -6,0 C -4,7 C
22.02.2013 13:11 -1,1 C 70 % 1021,0 hPa 0,0 l/m 3,6 km/h (1 Bft) O-NO 67 -5,9 C -1,1 C
22.02.2013 13:16 -0,9 C 69 % 1021,0 hPa 0,0 l/m 11,9 km/h (2 Bft) NO 45 -5,9 C -4,9 C
22.02.2013 13:21 -0,8 C 69 % 1020,7 hPa 0,0 l/m 4,3 km/h (1 Bft) O-NO 67 -5,8 C -0,8 C
22.02.2013 13:26 -0,7 C 68 % 1020,8 hPa 0,0 l/m 3,6 km/h (1 Bft) O-SO 112 -5,9 C -0,7 C
22.02.2013 13:31 -0,8 C 68 % 1020,7 hPa 0,0 l/m 8,3 km/h (2 Bft) NO 45 -5,9 C -3,8 C
22.02.2013 13:36 -0,9 C 67 % 1020,9 hPa 0,0 l/m 13,3 km/h (3 Bft) O 90 -6,2 C -5,2 C
22.02.2013 13:41 -0,9 C 67 % 1020,6 hPa 0,0 l/m 13,0 km/h (3 Bft) O 90 -6,2 C -5,1 C
22.02.2013 13:46 -1,0 C 67 % 1020,7 hPa 0,0 l/m 7,6 km/h (2 Bft) O-NO 67 -6,3 C -3,8 C
22.02.2013 13:51 -1,0 C 67 % 1020,6 hPa 0,0 l/m 13,3 km/h (3 Bft) O-NO 67 -6,3 C -5,3 C
22.02.2013 13:56 -1,1 C 66 % 1020,7 hPa 0,0 l/m 7,2 km/h (2 Bft) NO 45 -6,6 C -3,8 C
22.02.2013 14:01 -1,1 C 66 % 1020,5 hPa 0,0 l/m 12,2 km/h (2 Bft) NO 45 -6,6 C -5,2 C
22.02.2013 14:06 -1,1 C 66 % 1020,7 hPa 0,0 l/m 11,5 km/h (2 Bft) O-SO 112 -6,6 C -5,0 C
22.02.2013 14:11 -0,9 C 66 % 1020,5 hPa 0,0 l/m 6,8 km/h (2 Bft) SO 135 -6,4 C -3,4 C
22.02.2013 14:16 -0,7 C 67 % 1020,6 hPa 0,0 l/m 10,8 km/h (2 Bft) O-SO 112 -6,0 C -4,4 C
22.02.2013 14:21 -0,7 C 66 % 1020,5 hPa 0,0 l/m 14,0 km/h (3 Bft) SO 135 -6,2 C -5,1 C
22.02.2013 14:26 -0,8 C 66 % 1020,6 hPa 0,0 l/m 13,7 km/h (3 Bft) O 90 -6,3 C -5,1 C
22.02.2013 14:31 -1,0 C 66 % 1020,6 hPa 0,0 l/m 12,6 km/h (3 Bft) O-SO 112 -6,5 C -5,1 C
22.02.2013 14:36 -1,2 C 67 % 1020,6 hPa 0,0 l/m 17,3 km/h (3 Bft) O-NO 67 -6,5 C -6,3 C
22.02.2013 14:41 -1,2 C 67 % 1020,7 hPa 0,0 l/m 13,0 km/h (3 Bft) O-SO 112 -6,5 C -5,5 C
22.02.2013 14:46 -1,3 C 68 % 1020,6 hPa 0,0 l/m 8,3 km/h (2 Bft) O 90 -6,4 C -4,4 C
22.02.2013 14:51 -1,3 C 68 % 1020,4 hPa 0,0 l/m 5,8 km/h (2 Bft) O-NO 67 -6,4 C -3,4 C
22.02.2013 14:56 -1,2 C 69 % 1020,4 hPa 0,0 l/m 6,5 km/h (2 Bft) O 90 -6,1 C -3,6 C
22.02.2013 15:01 -1,1 C 69 % 1020,4 hPa 0,0 l/m 16,6 km/h (3 Bft) O-NO 67 -6,0 C -6,1 C
22.02.2013 15:06 -1,1 C 69 % 1020,4 hPa 0,0 l/m 6,5 km/h (2 Bft) O-NO 67 -6,0 C -3,5 C
22.02.2013 15:11 -1,1 C 69 % 1020,4 hPa 0,0 l/m 9,0 km/h (2 Bft) O 90 -6,0 C -4,3 C
22.02.2013 15:16 -1,1 C 69 % 1020,3 hPa 0,0 l/m 7,2 km/h (2 Bft) O-NO 67 -6,0 C -3,8 C
22.02.2013 15:21 -1,1 C 70 % 1020,3 hPa 0,0 l/m 14,4 km/h (3 Bft) O-SO 112 -5,9 C -5,7 C
22.02.2013 15:26 -1,1 C 71 % 1020,3 hPa 0,0 l/m 5,8 km/h (2 Bft) O-SO 112 -5,7 C -3,2 C
22.02.2013 15:31 -1,1 C 71 % 1020,2 hPa 0,0 l/m 9,7 km/h (2 Bft) O-SO 112 -5,7 C -4,5 C
22.02.2013 15:36 -1,1 C 72 % 1020,3 hPa 0,0 l/m 8,3 km/h (2 Bft) O-NO 67 -5,5 C -4,1 C
22.02.2013 15:41 -1,2 C 72 % 1020,3 hPa 0,0 l/m 7,2 km/h (2 Bft) O-NO 67 -5,6 C -3,9 C
22.02.2013 15:46 -1,2 C 73 % 1020,3 hPa 0,0 l/m 14,4 km/h (3 Bft) O 90 -5,4 C -5,8 C
22.02.2013 15:51 -1,3 C 73 % 1020,2 hPa 0,0 l/m 14,8 km/h (3 Bft) NO 45 -5,5 C -6,0 C
22.02.2013 15:56 -1,4 C 74 % 1020,3 hPa 0,0 l/m 3,2 km/h (1 Bft) O-NO 67 -5,4 C -1,4 C
22.02.2013 16:01 -1,5 C 74 % 1020,3 hPa 0,0 l/m 6,5 km/h (2 Bft) O 90 -5,5 C -4,0 C
22.02.2013 16:06 -1,4 C 74 % 1020,1 hPa 0,0 l/m 4,3 km/h (1 Bft) O 90 -5,4 C -1,4 C
22.02.2013 16:11 -1,5 C 74 % 1020,0 hPa 0,0 l/m 11,2 km/h (2 Bft) O-SO 112 -5,5 C -5,4 C
22.02.2013 16:16 -1,6 C 74 % 1020,0 hPa 0,0 l/m 7,9 km/h (2 Bft) O-NO 67 -5,6 C -4,6 C
22.02.2013 16:21 -1,6 C 75 % 1020,1 hPa 0,0 l/m 9,4 km/h (2 Bft) O-NO 67 -5,4 C -5,1 C
22.02.2013 16:26 -1,7 C 76 % 1020,2 hPa 0,0 l/m 5,0 km/h (1 Bft) NO 45 -5,4 C -3,5 C
22.02.2013 16:31 -1,8 C 76 % 1020,1 hPa 0,0 l/m 12,6 km/h (3 Bft) O 90 -5,5 C -6,1 C
22.02.2013 16:36 -1,9 C 77 % 1020,0 hPa 0,0 l/m 4,7 km/h (1 Bft) O-NO 67 -5,4 C -3,6 C
22.02.2013 16:41 -1,9 C 77 % 1020,0 hPa 0,0 l/m 5,8 km/h (2 Bft) NO 45 -5,4 C -4,1 C
22.02.2013 16:46 -2,0 C 77 % 1020,0 hPa 0,0 l/m 9,7 km/h (2 Bft) NO 45 -5,5 C -5,6 C
22.02.2013 16:51 -2,1 C 77 % 1020,0 hPa 0,0 l/m 8,3 km/h (2 Bft) O-NO 67 -5,6 C -5,3 C
22.02.2013 16:56 -2,1 C 77 % 1020,0 hPa 0,0 l/m 4,7 km/h (1 Bft) O-NO 67 -5,6 C -3,8 C
22.02.2013 17:01 -2,2 C 77 % 1020,0 hPa 0,0 l/m 4,0 km/h (1 Bft) O-NO 67 -5,7 C -2,2 C
22.02.2013 17:06 -2,2 C 77 % 1020,0 hPa 0,0 l/m 6,5 km/h (2 Bft) NO 45 -5,7 C -4,8 C
22.02.2013 17:11 -2,4 C 78 % 1020,0 hPa 0,0 l/m 10,4 km/h (2 Bft) O-SO 112 -5,7 C -6,3 C
22.02.2013 17:16 -2,4 C 78 % 1020,0 hPa 0,0 l/m 14,4 km/h (3 Bft) NO 45 -5,7 C -7,3 C
22.02.2013 17:21 -2,4 C 78 % 1020,0 hPa 0,0 l/m 8,6 km/h (2 Bft) O-SO 112 -5,7 C -5,8 C
22.02.2013 17:26 -2,5 C 78 % 1020,0 hPa 0,0 l/m 0,0 km/h (0 Bft) NO 45 -5,8 C -2,5 C
22.02.2013 17:31 -2,6 C 78 % 1019,9 hPa 0,0 l/m 7,2 km/h (2 Bft) NO 45 -5,9 C -5,5 C
22.02.2013 17:36 -2,7 C 78 % 1020,0 hPa 0,0 l/m 4,7 km/h (1 Bft) O-SO 112 -6,0 C -4,5 C
22.02.2013 17:41 -2,7 C 78 % 1020,0 hPa 0,0 l/m 2,5 km/h (1 Bft) O 90 -6,0 C -2,7 C
22.02.2013 17:46 -2,9 C 79 % 1020,1 hPa 0,0 l/m 4,0 km/h (1 Bft) O-NO 67 -6,0 C -2,9 C
22.02.2013 17:51 -2,9 C 79 % 1020,1 hPa 0,0 l/m 0,0 km/h (0 Bft) N-NO 22 -6,0 C -2,9 C
22.02.2013 17:56 -3,0 C 79 % 1020,1 hPa 0,0 l/m 2,2 km/h (1 Bft) O-SO 112 -6,1 C -3,0 C
22.02.2013 18:01 -3,1 C 79 % 1020,1 hPa 0,0 l/m 3,6 km/h (1 Bft) O-NO 67 -6,2 C -3,1 C
22.02.2013 18:06 -3,1 C 79 % 1020,4 hPa 0,0 l/m 4,0 km/h (1 Bft) NO 45 -6,2 C -3,1 C
22.02.2013 18:11 -3,2 C 79 % 1020,3 hPa 0,0 l/m 4,7 km/h (1 Bft) O-NO 67 -6,3 C -5,1 C
22.02.2013 18:16 -3,2 C 79 % 1020,4 hPa 0,0 l/m 3,2 km/h (1 Bft) NO 45 -6,3 C -3,2 C
22.02.2013 18:21 -3,2 C 79 % 1020,4 hPa 0,0 l/m 3,2 km/h (1 Bft) O-NO 67 -6,3 C -3,2 C
22.02.2013 18:26 -3,3 C 79 % 1020,4 hPa 0,0 l/m 5,0 km/h (1 Bft) O-NO 67 -6,4 C -5,3 C
22.02.2013 18:31 -3,4 C 79 % 1020,5 hPa 0,0 l/m 4,7 km/h (1 Bft) O-NO 67 -6,5 C -5,3 C
22.02.2013 18:36 -3,5 C 79 % 1020,4 hPa 0,0 l/m 1,4 km/h (1 Bft) NO 45 -6,6 C -3,5 C
22.02.2013 18:41 -3,6 C 79 % 1020,4 hPa 0,0 l/m 1,4 km/h (1 Bft) NO 45 -6,7 C -3,6 C
22.02.2013 18:46 -3,6 C 79 % 1020,5 hPa 0,0 l/m 7,6 km/h (2 Bft) O-NO 67 -6,7 C -6,8 C
22.02.2013 18:51 -3,6 C 80 % 1020,6 hPa 0,0 l/m 10,1 km/h (2 Bft) O-NO 67 -6,5 C -7,6 C
22.02.2013 18:56 -3,7 C 80 % 1020,7 hPa 0,0 l/m 5,8 km/h (2 Bft) O 90 -6,6 C -6,2 C
22.02.2013 19:01 -3,7 C 79 % 1020,6 hPa 0,0 l/m 3,6 km/h (1 Bft) O-NO 67 -6,8 C -3,7 C
22.02.2013 19:06 -3,7 C 79 % 1020,7 hPa 0,0 l/m 4,0 km/h (1 Bft) NO 45 -6,8 C -3,7 C
22.02.2013 19:11 -3,7 C 79 % 1020,8 hPa 0,0 l/m 7,6 km/h (2 Bft) NO 45 -6,8 C -6,9 C
22.02.2013 19:16 -3,7 C 79 % 1020,9 hPa 0,0 l/m 7,9 km/h (2 Bft) NO 45 -6,8 C -7,0 C
22.02.2013 19:21 -3,8 C 79 % 1020,7 hPa 0,0 l/m 5,8 km/h (2 Bft) O-NO 67 -6,9 C -6,3 C
22.02.2013 19:26 -3,8 C 79 % 1020,6 hPa 0,0 l/m 2,9 km/h (1 Bft) O-NO 67 -6,9 C -3,8 C
22.02.2013 19:31 -3,9 C 79 % 1020,6 hPa 0,0 l/m 4,7 km/h (1 Bft) NO 45 -7,0 C -5,8 C
22.02.2013 19:36 -3,9 C 79 % 1020,8 hPa 0,0 l/m 4,3 km/h (1 Bft) NO 45 -7,0 C -3,9 C
22.02.2013 19:41 -3,9 C 79 % 1020,8 hPa 0,0 l/m 6,1 km/h (2 Bft) NO 45 -7,0 C -6,6 C
22.02.2013 19:46 -3,9 C 79 % 1020,8 hPa 0,0 l/m 3,2 km/h (1 Bft) NO 45 -7,0 C -3,9 C
22.02.2013 19:51 -3,9 C 79 % 1020,8 hPa 0,0 l/m 9,4 km/h (2 Bft) NO 45 -7,0 C -7,8 C
22.02.2013 19:56 -3,9 C 79 % 1020,8 hPa 0,0 l/m 7,6 km/h (2 Bft) O 90 -7,0 C -7,2 C
22.02.2013 20:01 -3,9 C 79 % 1020,8 hPa 0,0 l/m 7,2 km/h (2 Bft) O 90 -7,0 C -7,0 C
22.02.2013 20:06 -3,9 C 79 % 1020,5 hPa 0,0 l/m 4,0 km/h (1 Bft) NO 45 -7,0 C -3,9 C
22.02.2013 20:11 -3,9 C 79 % 1020,5 hPa 0,0 l/m 4,0 km/h (1 Bft) NO 45 -7,0 C -3,9 C
22.02.2013 20:16 -3,9 C 79 % 1020,6 hPa 0,0 l/m 6,8 km/h (2 Bft) N-NO 22 -7,0 C -6,9 C
22.02.2013 20:21 -4,1 C 79 % 1020,5 hPa 0,0 l/m 4,3 km/h (1 Bft) NO 45 -7,2 C -4,1 C
22.02.2013 20:26 -4,1 C 79 % 1020,7 hPa 0,0 l/m 3,2 km/h (1 Bft) NO 45 -7,2 C -4,1 C
22.02.2013 20:31 -4,1 C 79 % 1020,7 hPa 0,0 l/m 4,0 km/h (1 Bft) NO 45 -7,2 C -4,1 C
22.02.2013 20:36 -4,2 C 79 % 1020,6 hPa 0,0 l/m 6,1 km/h (2 Bft) O 90 -7,3 C -6,9 C
22.02.2013 20:41 -4,2 C 79 % 1020,7 hPa 0,0 l/m 5,4 km/h (1 Bft) O-NO 67 -7,3 C -6,6 C
22.02.2013 20:46 -4,2 C 79 % 1020,5 hPa 0,0 l/m 4,7 km/h (1 Bft) N-NO 22 -7,3 C -6,2 C
22.02.2013 20:51 -4,4 C 79 % 1020,4 hPa 0,0 l/m 5,8 km/h (2 Bft) O-NO 67 -7,5 C -7,0 C
22.02.2013 20:56 -4,4 C 79 % 1020,4 hPa 0,0 l/m 4,0 km/h (1 Bft) NO 45 -7,5 C -4,4 C
22.02.2013 21:01 -4,4 C 80 % 1020,4 hPa 0,0 l/m 3,6 km/h (1 Bft) NO 45 -7,3 C -4,4 C
22.02.2013 21:06 -4,4 C 80 % 1020,4 hPa 0,0 l/m 4,3 km/h (1 Bft) O-NO 67 -7,3 C -4,4 C
22.02.2013 21:11 -4,4 C 80 % 1020,4 hPa 0,0 l/m 5,0 km/h (1 Bft) O-NO 67 -7,3 C -6,6 C
22.02.2013 21:16 -4,4 C 80 % 1020,3 hPa 0,0 l/m 10,1 km/h (2 Bft) NO 45 -7,3 C -8,6 C
22.02.2013 21:21 -4,4 C 80 % 1020,3 hPa 0,0 l/m 5,4 km/h (1 Bft) NO 45 -7,3 C -6,8 C
22.02.2013 21:26 -4,4 C 80 % 1020,3 hPa 0,0 l/m 6,1 km/h (2 Bft) O-NO 67 -7,3 C -7,1 C
22.02.2013 21:31 -4,4 C 81 % 1020,3 hPa 0,0 l/m 12,2 km/h (2 Bft) NO 45 -7,2 C -9,2 C
22.02.2013 21:36 -4,4 C 81 % 1020,3 hPa 0,0 l/m 5,4 km/h (1 Bft) N 360 -7,2 C -6,8 C
22.02.2013 21:41 -4,4 C 81 % 1020,2 hPa 0,0 l/m 5,0 km/h (1 Bft) N-NO 22 -7,2 C -6,6 C
22.02.2013 21:46 -4,4 C 81 % 1020,2 hPa 0,0 l/m 7,6 km/h (2 Bft) O-NO 67 -7,2 C -7,8 C
22.02.2013 21:51 -4,4 C 82 % 1020,4 hPa 0,0 l/m 7,6 km/h (2 Bft) O-NO 67 -7,0 C -7,8 C
22.02.2013 21:56 -4,4 C 82 % 1020,3 hPa 0,0 l/m 10,4 km/h (2 Bft) O-NO 67 -7,0 C -8,7 C
22.02.2013 22:01 -4,3 C 82 % 1020,3 hPa 0,0 l/m 4,3 km/h (1 Bft) NO 45 -6,9 C -4,3 C
22.02.2013 22:06 -4,3 C 82 % 1020,3 hPa 0,0 l/m 5,8 km/h (2 Bft) O-NO 67 -6,9 C -6,9 C
22.02.2013 22:11 -4,2 C 82 % 1020,3 hPa 0,0 l/m 4,7 km/h (1 Bft) O-NO 67 -6,8 C -6,2 C
22.02.2013 22:16 -4,4 C 82 % 1020,2 hPa 0,0 l/m 5,8 km/h (2 Bft) NO 45 -7,0 C -7,0 C
22.02.2013 22:21 -4,4 C 82 % 1020,2 hPa 0,0 l/m 8,6 km/h (2 Bft) O-NO 67 -7,0 C -8,1 C
22.02.2013 22:26 -4,4 C 82 % 1020,2 hPa 0,0 l/m 5,8 km/h (2 Bft) NO 45 -7,0 C -7,0 C
22.02.2013 22:31 -4,4 C 82 % 1020,2 hPa 0,0 l/m 9,4 km/h (2 Bft) NO 45 -7,0 C -8,4 C
22.02.2013 22:36 -4,2 C 82 % 1020,0 hPa 0,0 l/m 9,4 km/h (2 Bft) NO 45 -6,8 C -8,1 C
22.02.2013 22:41 -4,2 C 82 % 1020,2 hPa 0,0 l/m 13,7 km/h (3 Bft) O-NO 67 -6,8 C -9,3 C
22.02.2013 22:46 -4,2 C 82 % 1020,1 hPa 0,0 l/m 4,3 km/h (1 Bft) NO 45 -6,8 C -4,2 C
22.02.2013 22:51 -4,4 C 82 % 1020,0 hPa 0,0 l/m 6,5 km/h (2 Bft) O-NO 67 -7,0 C -7,3 C
22.02.2013 22:56 -4,4 C 82 % 1020,2 hPa 0,0 l/m 5,8 km/h (2 Bft) N-NO 22 -7,0 C -7,0 C
22.02.2013 23:01 -4,4 C 82 % 1020,0 hPa 0,0 l/m 5,4 km/h (1 Bft) NO 45 -7,0 C -6,8 C
22.02.2013 23:06 -4,4 C 82 % 1020,1 hPa 0,0 l/m 10,4 km/h (2 Bft) O-NO 67 -7,0 C -8,7 C
22.02.2013 23:11 -4,4 C 82 % 1019,9 hPa 0,0 l/m 6,1 km/h (2 Bft) NO 45 -7,0 C -7,1 C
22.02.2013 23:16 -4,4 C 82 % 1019,8 hPa 0,0 l/m 7,2 km/h (2 Bft) NO 45 -7,0 C -7,6 C
22.02.2013 23:21 -4,4 C 82 % 1019,9 hPa 0,0 l/m 5,4 km/h (1 Bft) NO 45 -7,0 C -6,8 C
22.02.2013 23:26 -4,5 C 82 % 1019,9 hPa 0,0 l/m 8,3 km/h (2 Bft) NO 45 -7,1 C -8,1 C
22.02.2013 23:31 -4,5 C 82 % 1019,7 hPa 0,0 l/m 5,8 km/h (2 Bft) O-NO 67 -7,1 C -7,1 C
22.02.2013 23:36 -4,6 C 82 % 1019,8 hPa 0,0 l/m 5,4 km/h (1 Bft) O-NO 67 -7,2 C -7,0 C
22.02.2013 23:41 -4,6 C 82 % 1019,8 hPa 0,0 l/m 5,0 km/h (1 Bft) O-NO 67 -7,2 C -6,8 C
22.02.2013 23:46 -4,6 C 82 % 1019,6 hPa 0,0 l/m 9,0 km/h (2 Bft) NO 45 -7,2 C -8,5 C
22.02.2013 23:51 -4,6 C 82 % 1019,7 hPa 0,0 l/m 5,0 km/h (1 Bft) NO 45 -7,2 C -6,8 C
22.02.2013 23:56 -4,6 C 83 % 1019,7 hPa 0,0 l/m 5,0 km/h (1 Bft) NO 45 -7,0 C -6,8 C
_ Min-Zeit 23:36 13:56 23:46 - 00:16 - - 20:51 22:41
Minimum _ -4,6 C 66 % 1019,6 hPa - 0,0 km/h (0 Bft) - - -7,5 C -9,3 C
_ Max-Zeit 12:16 02:16 00:01 11:56 11:01 - - 10:56 13:26
Maximum _ -0,7 C 86 % 1023,8 hPa 0,5 l/m 19,1 km/h
O-SO (3 Bft)
- - -5,0 C -0,7 C
Durchschnitt _ -2,8 C 78 % 1021,4 hPa #0,5 l/m 6,8 km/h (2 Bft) O-NO - -6,1 C -5,0 C
(c) by David Heller